Time;durP1;ratioP1;P1;durP2;ratioP2;P2;SDS_P1;SDS_P2;PMS_P1;PMS_P2;Temp;Humidity;BMP_temperature;BMP_pressure;BME280_temperature;BME280_humidity;BME280_pressure;Samples;Min_cycle;Max_cycle;Signal;HPM_P1;HPM_P2
2022/09/26 00:01:51;;;;;;;9.20;6.37;;;14.90;73.10;;;15.19;53.20;94903.97;5026850;28;20961;-56
2022/09/26 00:04:20;;;;;;;8.40;6.40;;;14.90;74.20;;;15.18;53.08;94897.00;5026659;28;21003;-56
2022/09/26 00:06:47;;;;;;;8.97;6.70;;;14.90;74.30;;;15.16;53.31;94899.00;5027298;28;20453;-57
2022/09/26 00:09:15;;;;;;;9.70;6.07;;;14.90;74.20;;;15.13;53.20;94897.50;5026577;28;20476;-57
2022/09/26 00:11:43;;;;;;;14.50;6.70;;;14.90;74.40;;;15.12;53.02;94902.97;5027872;28;20460;-57
2022/09/26 00:14:19;;;;;;;16.43;7.37;;;14.80;74.30;;;15.10;53.34;94897.03;5023474;28;20472;-56
2022/09/26 00:16:46;;;;;;;8.77;5.30;;;14.80;74.30;;;15.09;53.33;94898.00;5027146;28;20445;-57
2022/09/26 00:19:15;;;;;;;6.97;5.40;;;14.80;74.90;;;15.06;53.29;94893.88;5026601;28;20550;-57
2022/09/26 00:21:42;;;;;;;9.03;5.10;;;14.80;74.50;;;15.06;53.15;94896.53;5026527;28;20453;-59
2022/09/26 00:24:09;;;;;;;7.57;5.90;;;14.70;74.60;;;15.02;53.42;94888.06;5026897;28;20472;-58
2022/09/26 00:26:37;;;;;;;10.50;6.40;;;14.70;75.10;;;15.03;53.68;94900.34;5026518;28;20577;-55
2022/09/26 00:29:07;;;;;;;10.17;5.70;;;14.70;76.50;;;15.02;53.69;94885.41;5027141;28;21070;-56
2022/09/26 00:31:36;;;;;;;10.70;7.03;;;14.80;75.70;;;15.01;53.83;94891.75;5026315;28;20452;-58
2022/09/26 00:34:03;;;;;;;12.20;6.10;;;14.70;75.80;;;15.04;53.56;94896.69;5023496;28;20903;-58
2022/09/26 00:36:32;;;;;;;15.70;6.13;;;14.70;76.30;;;15.08;53.76;94891.06;5026481;28;20453;-57
2022/09/26 00:38:59;;;;;;;8.20;5.40;;;14.80;76.40;;;15.11;54.11;94878.31;5026422;28;20534;-57
2022/09/26 00:41:27;;;;;;;10.50;5.80;;;14.80;76.80;;;15.13;53.69;94873.66;5024061;28;20453;-55
2022/09/26 00:43:55;;;;;;;9.70;6.63;;;14.80;76.50;;;15.15;53.54;94876.13;5026358;28;20445;-57
2022/09/26 00:46:28;;;;;;;10.90;6.03;;;14.80;76.30;;;15.16;53.36;94872.50;5026392;28;20895;-56
2022/09/26 00:49:03;;;;;;;9.63;5.67;;;14.90;76.00;;;15.14;53.17;94866.56;5026549;28;20464;-56
2022/09/26 00:51:32;;;;;;;13.83;6.47;;;14.90;76.20;;;15.15;53.14;94874.34;5026214;28;20447;-55
2022/09/26 00:53:59;;;;;;;12.80;6.70;;;14.80;76.00;;;15.16;53.04;94877.81;5026327;28;20985;-56
2022/09/26 00:56:30;;;;;;;9.50;6.30;;;14.90;76.40;;;15.17;53.63;94875.00;5026145;28;20463;-62
2022/09/26 00:59:01;;;;;;;7.10;5.90;;;14.90;76.50;;;15.19;53.12;94883.59;5026527;28;20556;-56
2022/09/26 01:01:28;;;;;;;9.17;6.80;;;14.90;76.50;;;15.23;53.54;94878.81;5027791;28;20536;-57
2022/09/26 01:03:55;;;;;;;6.90;5.30;;;14.90;76.50;;;15.24;53.50;94880.44;5026475;28;20472;-57
2022/09/26 01:06:22;;;;;;;15.87;5.97;;;14.90;76.80;;;15.27;53.45;94885.41;5026086;28;20523;-57
2022/09/26 01:08:55;;;;;;;9.10;6.77;;;15.00;77.00;;;15.29;53.55;94886.06;5026409;28;20449;-55
2022/09/26 01:11:23;;;;;;;8.27;6.47;;;15.00;77.00;;;15.29;53.42;94888.72;5025821;28;20441;-57
2022/09/26 01:13:51;;;;;;;10.10;7.00;;;15.00;76.80;;;15.30;53.46;94878.94;5027025;28;20449;-56
2022/09/26 01:16:18;;;;;;;14.60;7.57;;;15.00;77.00;;;15.32;53.22;94883.09;5025854;28;20456;-57
2022/09/26 01:18:45;;;;;;;14.23;7.50;;;15.00;76.60;;;15.33;53.35;94879.41;5025780;28;20980;-57
2022/09/26 01:21:43;;;;;;;15.33;7.27;;;15.00;76.80;;;15.34;53.61;94867.84;5022258;28;20627;-55
2022/09/26 01:25:05;;;;;;;7.73;6.40;;;15.00;77.10;;;15.36;53.43;94862.38;5023441;28;20472;-56
2022/09/26 01:27:55;;;;;;;7.03;6.40;;;15.10;76.90;;;15.37;53.28;94867.50;5019630;28;20518;-56
2022/09/26 01:30:25;;;;;;;9.30;6.63;;;15.10;76.80;;;15.37;53.03;94864.84;5024840;28;20526;-56
2022/09/26 01:33:20;;;;;;;10.17;6.57;;;15.10;76.90;;;15.39;53.79;94869.97;5028447;28;20523;-56
2022/09/26 01:36:39;;;;;;;9.40;7.40;;;15.10;76.80;;;15.39;52.96;94878.75;5027790;28;20480;-56
2022/09/26 01:39:18;;;;;;;7.90;6.47;;;15.10;76.40;;;15.37;52.96;94869.34;5028661;28;20469;-58
2022/09/26 01:41:50;;;;;;;9.17;6.83;;;15.10;76.10;;;15.36;53.05;94873.78;5027568;28;20886;-55
2022/09/26 01:44:30;;;;;;;9.67;7.50;;;15.10;76.50;;;15.35;53.17;94861.56;5029577;28;20464;-57
2022/09/26 01:47:01;;;;;;;12.40;6.33;;;15.00;76.50;;;15.35;52.81;94868.66;5029777;28;20480;-57
2022/09/26 01:49:31;;;;;;;13.67;7.87;;;15.10;76.40;;;15.31;52.76;94865.53;5029612;28;20635;-59
2022/09/26 01:52:00;;;;;;;11.50;7.77;;;15.00;76.40;;;15.31;53.33;94862.06;5029579;28;20712;-57
2022/09/26 01:54:30;;;;;;;13.40;7.33;;;15.00;77.00;;;15.31;52.99;94864.72;5029514;28;21051;-57
2022/09/26 01:56:58;;;;;;;11.87;6.73;;;15.00;77.00;;;15.32;53.19;94858.38;5029963;28;20444;-56
2022/09/26 01:59:27;;;;;;;10.57;7.10;;;15.00;76.80;;;15.31;52.79;94854.09;5029908;28;20567;-55
2022/09/26 02:01:59;;;;;;;17.13;10.50;;;15.00;76.60;;;15.31;52.90;94841.69;5029359;28;20518;-56
2022/09/26 02:04:28;;;;;;;30.40;16.50;;;15.00;76.60;;;15.32;53.17;94850.44;5029545;28;20525;-56
2022/09/26 02:06:58;;;;;;;38.57;19.43;;;15.00;76.60;;;15.30;53.25;94845.31;5026110;28;20500;-56
2022/09/26 02:09:28;;;;;;;22.90;12.00;;;15.00;76.90;;;15.29;53.15;94843.69;5029409;28;20481;-56
2022/09/26 02:11:56;;;;;;;37.63;13.50;;;15.00;76.60;;;15.29;53.04;94850.78;5028929;28;20945;-55
2022/09/26 02:14:26;;;;;;;42.30;13.83;;;15.00;77.00;;;15.28;53.05;94852.63;5031799;28;20469;-56
2022/09/26 02:16:55;;;;;;;25.93;12.43;;;15.00;77.00;;;15.29;53.41;94853.44;5028871;28;20459;-58
2022/09/26 02:19:27;;;;;;;16.63;9.13;;;15.00;77.40;;;15.30;53.15;94842.66;5028720;28;20477;-57
2022/09/26 02:21:55;;;;;;;23.40;11.57;;;15.00;77.40;;;15.34;53.18;94845.81;5026427;28;20444;-56
2022/09/26 02:24:22;;;;;;;26.60;12.50;;;15.00;77.50;;;15.36;53.34;94835.88;5029195;28;20602;-56
2022/09/26 02:26:50;;;;;;;34.17;11.87;;;15.00;77.80;;;15.37;53.50;94827.75;5029423;28;20843;-55
2022/09/26 02:29:17;;;;;;;24.57;11.50;;;15.10;78.30;;;15.39;53.64;94819.63;5029374;28;20542;-58
2022/09/26 02:31:54;;;;;;;17.00;9.83;;;15.10;78.40;;;15.40;53.81;94816.81;5029214;28;20490;-57
2022/09/26 02:34:21;;;;;;;20.17;9.40;;;15.10;78.70;;;15.39;53.80;94812.50;5027352;28;20483;-55
2022/09/26 02:36:50;;;;;;;18.57;9.20;;;15.10;78.60;;;15.40;54.16;94827.41;5029165;28;20453;-57
2022/09/26 02:39:17;;;;;;;12.43;7.70;;;15.10;79.50;;;15.41;54.27;94831.72;5028776;28;20473;-56
2022/09/26 02:41:49;;;;;;;15.77;8.13;;;15.10;79.70;;;15.42;54.57;94824.59;5028881;28;20457;-57
2022/09/26 02:44:34;;;;;;;14.53;7.60;;;15.10;80.00;;;15.44;54.49;94821.75;5028807;28;20874;-57
2022/09/26 02:47:21;;;;;;;17.10;6.37;;;15.10;80.30;;;15.42;54.69;94821.94;5027040;28;20551;-53
2022/09/26 02:50:15;;;;;;;13.93;6.70;;;15.10;80.40;;;15.41;54.69;94818.47;5026799;28;20472;-56
2022/09/26 02:52:51;;;;;;;20.10;7.23;;;15.10;80.70;;;15.39;54.43;94814.31;5027624;28;20457;-55
2022/09/26 02:55:21;;;;;;;9.60;7.20;;;15.10;80.30;;;15.35;54.30;94813.84;5028003;28;20480;-56
2022/09/26 02:57:55;;;;;;;22.10;6.73;;;15.10;80.50;;;15.33;54.56;94807.06;5028254;28;20942;-57
2022/09/26 03:00:24;;;;;;;11.10;6.30;;;15.00;80.90;;;15.32;54.75;94802.75;5028162;28;20479;-57
2022/09/26 03:02:57;;;;;;;15.60;8.03;;;15.00;80.90;;;15.30;54.73;94799.44;5027977;28;20460;-58
2022/09/26 03:05:26;;;;;;;13.53;7.30;;;15.00;81.00;;;15.27;54.67;94795.31;5027105;28;20548;-56
2022/09/26 03:07:57;;;;;;;12.13;7.30;;;15.00;80.90;;;15.25;54.79;94802.59;5027775;28;20460;-57
2022/09/26 03:10:25;;;;;;;18.60;7.37;;;15.00;81.20;;;15.21;54.90;94798.63;5024727;28;20468;-57
2022/09/26 03:12:52;;;;;;;12.37;7.57;;;14.90;81.20;;;15.17;54.96;94798.16;5027938;28;20452;-57
2022/09/26 03:15:20;;;;;;;13.40;6.57;;;14.90;81.50;;;15.17;55.32;94802.63;5029762;28;20534;-57
2022/09/26 03:17:51;;;;;;;10.40;7.20;;;14.90;82.30;;;15.13;55.13;94793.38;5027377;28;20946;-56
2022/09/26 03:20:20;;;;;;;9.47;6.63;;;14.90;82.10;;;15.10;55.38;94791.06;5029116;28;20500;-56
2022/09/26 03:22:47;;;;;;;14.33;7.27;;;14.80;82.60;;;15.09;55.41;94802.63;5027408;28;20457;-56
2022/09/26 03:25:19;;;;;;;16.17;6.50;;;14.80;82.50;;;15.05;55.42;94802.97;5027492;28;21028;-55
2022/09/26 03:27:47;;;;;;;17.40;7.40;;;14.80;82.70;;;15.01;55.35;94793.72;5026525;28;20846;-57
2022/09/26 03:30:15;;;;;;;12.60;7.10;;;14.80;83.00;;;14.99;55.54;94790.41;5027016;28;20468;-58
2022/09/26 03:32:42;;;;;;;10.10;7.07;;;14.70;83.20;;;14.99;55.46;94793.06;5027721;28;20457;-56
2022/09/26 03:35:10;;;;;;;13.03;6.17;;;14.70;83.30;;;14.98;55.50;94780.81;5027703;28;20468;-55
2022/09/26 03:37:37;;;;;;;14.10;8.27;;;14.70;83.70;;;14.98;55.37;94774.69;5027505;28;20567;-57
2022/09/26 03:40:06;;;;;;;11.77;7.37;;;14.70;83.10;;;14.89;55.33;94773.91;5027546;28;20487;-56
2022/09/26 03:42:35;;;;;;;35.63;17.07;;;14.60;82.70;;;14.83;55.40;94790.47;5027575;28;20453;-57
2022/09/26 03:45:02;;;;;;;14.13;8.70;;;14.60;82.80;;;14.77;55.58;94789.28;5027811;28;20488;-56
2022/09/26 03:47:30;;;;;;;10.57;7.17;;;14.50;83.10;;;14.76;55.85;94792.94;5027213;28;20491;-58
2022/09/26 03:49:57;;;;;;;12.80;7.10;;;14.50;83.50;;;14.77;55.77;94788.47;5026435;28;20849;-56
2022/09/26 03:52:24;;;;;;;15.30;8.07;;;14.50;83.80;;;14.76;55.72;94789.47;5027069;28;20463;-58
2022/09/26 03:54:52;;;;;;;14.23;7.73;;;14.50;83.90;;;14.77;55.91;94783.19;5026247;28;20556;-55
2022/09/26 03:57:19;;;;;;;34.97;8.90;;;14.50;84.40;;;14.75;55.57;94770.13;5026998;28;20456;-56
2022/09/26 03:59:48;;;;;;;17.80;7.33;;;14.50;83.70;;;14.74;55.73;94783.53;5025818;28;20472;-56
2022/09/26 04:02:16;;;;;;;15.23;6.60;;;14.50;83.80;;;14.72;55.44;94790.78;5027554;28;20537;-56
2022/09/26 04:04:43;;;;;;;14.77;7.37;;;14.40;83.80;;;14.71;55.66;94784.66;5026788;28;20547;-57
2022/09/26 04:07:11;;;;;;;13.17;6.90;;;14.40;84.20;;;14.72;55.84;94796.91;5026913;28;20488;-57
2022/09/26 04:09:38;;;;;;;11.70;7.17;;;14.40;84.40;;;14.77;56.07;94794.59;5026611;28;20485;-58
2022/09/26 04:12:06;;;;;;;14.37;7.27;;;14.50;85.00;;;14.79;56.29;94789.94;5026686;28;20563;-55
2022/09/26 04:14:34;;;;;;;14.77;7.43;;;14.50;85.40;;;14.83;55.92;94790.47;5027283;28;20469;-55
2022/09/26 04:17:03;;;;;;;13.00;7.93;;;14.50;85.20;;;14.86;55.84;94787.47;5023943;28;20452;-55
2022/09/26 04:19:31;;;;;;;8.87;7.10;;;14.60;85.20;;;14.89;56.05;94792.44;5026354;28;20465;-56
2022/09/26 04:21:58;;;;;;;11.43;7.70;;;14.60;85.40;;;14.92;55.69;94791.25;5026922;28;20535;-57
2022/09/26 04:24:26;;;;;;;16.20;8.03;;;14.60;85.20;;;14.95;55.88;94809.44;5026970;28;20473;-56
2022/09/26 04:26:54;;;;;;;15.70;9.57;;;14.60;85.10;;;14.97;56.18;94804.84;5026754;28;21016;-58
2022/09/26 04:29:22;;;;;;;26.73;9.40;;;14.60;85.50;;;14.99;55.92;94803.66;5026936;28;20864;-57
2022/09/26 04:31:50;;;;;;;10.93;8.27;;;14.70;85.60;;;14.99;55.55;94806.28;5023330;28;20953;-58
2022/09/26 04:34:19;;;;;;;8.60;6.90;;;14.70;85.40;;;14.98;55.55;94804.66;5026674;28;20477;-55
2022/09/26 04:36:50;;;;;;;11.00;6.67;;;14.70;85.20;;;14.98;55.75;94796.72;5026819;28;20440;-56
2022/09/26 04:39:17;;;;;;;17.43;6.83;;;14.70;84.90;;;14.95;55.55;94793.56;5023474;28;20484;-56
2022/09/26 04:41:45;;;;;;;11.60;7.50;;;14.70;84.80;;;14.93;55.90;94790.25;5025849;28;20451;-55
2022/09/26 04:44:14;;;;;;;19.33;7.90;;;14.60;85.30;;;14.90;55.89;94780.81;5026195;28;20476;-57
2022/09/26 04:46:41;;;;;;;16.07;8.47;;;14.60;85.10;;;14.90;55.82;94785.31;5026597;28;20538;-57
2022/09/26 04:49:10;;;;;;;24.97;8.00;;;14.60;85.10;;;14.89;55.89;94787.13;5025755;28;20539;-55
2022/09/26 04:51:38;;;;;;;10.70;7.47;;;14.60;85.50;;;14.90;55.90;94788.78;5026197;28;20457;-57
2022/09/26 04:54:06;;;;;;;16.63;7.80;;;14.60;85.90;;;14.90;56.03;94783.47;5026150;28;21024;-57
2022/09/26 04:56:33;;;;;;;10.80;7.47;;;14.60;85.90;;;14.90;56.05;94788.78;5026237;28;20453;-57
2022/09/26 04:59:01;;;;;;;8.17;6.53;;;14.60;86.50;;;14.91;55.86;94785.13;5026032;28;20487;-58
2022/09/26 05:01:28;;;;;;;11.37;7.63;;;14.60;85.90;;;14.91;56.14;94784.31;5026031;28;21009;-55
2022/09/26 05:03:56;;;;;;;13.20;8.37;;;14.60;86.20;;;14.90;56.18;94783.47;5026525;28;20481;-58
2022/09/26 05:06:23;;;;;;;12.53;8.17;;;14.60;86.10;;;14.90;56.16;94785.31;5024724;28;20502;-57
2022/09/26 05:08:53;;;;;;;16.50;8.00;;;14.60;86.20;;;14.93;56.18;94780.50;5025701;28;20471;-58
2022/09/26 05:11:21;;;;;;;13.40;7.87;;;14.60;86.10;;;14.95;55.84;94791.75;5025614;28;20484;-58
2022/09/26 05:13:50;;;;;;;14.83;9.20;;;14.70;86.50;;;14.99;56.21;94781.66;5025473;28;20484;-55
2022/09/26 05:16:18;;;;;;;21.23;9.03;;;14.70;86.50;;;15.02;56.05;94781.31;5027275;28;20452;-55
2022/09/26 05:18:49;;;;;;;16.50;8.13;;;14.70;86.30;;;15.05;55.87;94783.63;5025497;28;20461;-56
2022/09/26 05:21:16;;;;;;;18.60;8.40;;;14.70;86.40;;;15.09;56.11;94770.84;5025463;28;20448;-56
2022/09/26 05:26:37;;;;;;;17.47;8.90;;;14.80;86.90;;;15.26;56.51;94775.13;5023399;28;20483;-58
2022/09/26 05:29:04;;;;;;;13.40;7.73;;;14.90;87.60;;;15.35;56.29;94771.44;5025497;28;20469;-58
2022/09/26 05:31:36;;;;;;;14.30;9.30;;;15.00;87.10;;;15.48;55.91;94770.88;5024734;28;20518;-56
2022/09/26 05:34:04;;;;;;;21.43;8.10;;;15.10;87.20;;;15.61;55.68;94754.41;5025297;28;20500;-54
2022/09/26 05:36:31;;;;;;;9.80;7.83;;;15.30;87.00;;;15.74;55.47;94752.03;5025006;28;20535;-56
2022/09/26 05:38:59;;;;;;;15.27;9.30;;;15.40;86.60;;;15.87;55.21;94761.28;5024992;28;20468;-57
2022/09/26 05:41:28;;;;;;;15.10;8.47;;;15.50;86.10;;;15.95;54.94;94751.41;5025003;28;20991;-56
2022/09/26 05:43:56;;;;;;;11.33;8.37;;;15.60;85.70;;;16.03;54.97;94747.88;5025275;28;20486;-56
2022/09/26 05:46:24;;;;;;;10.50;7.57;;;15.70;85.60;;;16.11;55.34;94745.19;5024865;28;20500;-54
2022/09/26 05:48:51;;;;;;;22.87;7.60;;;15.80;86.60;;;16.20;55.62;94753.91;5025179;28;20452;-57
2022/09/26 05:51:19;;;;;;;17.40;8.80;;;15.80;87.40;;;16.31;55.83;94760.63;5024765;28;20472;-57
2022/09/26 05:53:48;;;;;;;15.47;9.53;;;15.90;87.50;;;16.41;55.21;94758.56;5025323;28;20453;-57
2022/09/26 05:56:16;;;;;;;19.37;9.23;;;16.00;86.50;;;16.47;54.72;94755.19;5024916;28;20457;-57
2022/09/26 05:58:45;;;;;;;14.37;9.10;;;16.10;85.60;;;16.54;54.78;94765.91;5024877;28;20473;-57
2022/09/26 06:01:14;;;;;;;16.17;8.23;;;16.20;85.30;;;16.66;54.39;94758.34;5025165;28;20456;-56
2022/09/26 06:03:42;;;;;;;26.03;9.13;;;16.30;84.80;;;16.75;54.34;94775.88;5027083;28;20449;-57
2022/09/26 06:06:11;;;;;;;14.83;7.80;;;16.40;84.40;;;16.91;53.70;94776.75;5025352;28;20456;-56
2022/09/26 06:08:39;;;;;;;26.07;9.17;;;16.50;83.90;;;17.14;53.73;94764.19;5024905;28;20969;-56
2022/09/26 06:11:07;;;;;;;21.23;9.07;;;16.70;83.80;;;17.42;52.78;94768.06;5024997;28;20448;-55
2022/09/26 06:13:35;;;;;;;22.20;8.50;;;16.90;82.90;;;17.67;52.25;94769.38;5023935;28;20898;-57
2022/09/26 06:16:06;;;;;;;15.30;8.20;;;17.20;82.20;;;17.94;52.52;94766.25;5026410;28;20448;-57
2022/09/26 06:18:33;;;;;;;11.23;7.67;;;17.40;81.50;;;18.22;51.59;94769.81;5026516;28;20825;-58
2022/09/26 06:21:03;;;;;;;12.80;8.13;;;17.70;80.60;;;18.48;51.62;94771.06;5024961;28;20459;-56
2022/09/26 06:23:30;;;;;;;11.10;8.03;;;18.00;79.80;;;18.77;50.75;94772.75;5028755;28;20539;-55
2022/09/26 06:25:58;;;;;;;13.50;8.10;;;18.20;78.80;;;19.03;50.31;94773.19;5028345;28;20547;-58
2022/09/26 06:28:25;;;;;;;11.60;8.20;;;18.50;77.90;;;19.28;50.01;94770.88;5027899;28;21248;-56
2022/09/26 06:30:53;;;;;;;14.37;8.30;;;18.80;77.20;;;19.56;49.65;94780.69;5028159;28;20554;-57
2022/09/26 06:33:21;;;;;;;14.00;7.90;;;19.00;76.10;;;19.84;48.54;94780.63;5027953;28;20460;-57
2022/09/26 06:35:59;;;;;;;29.20;8.90;;;19.30;75.30;;;20.18;47.93;94757.53;5028509;28;20472;-55
2022/09/26 06:38:26;;;;;;;18.90;9.13;;;19.60;74.30;;;20.49;47.63;94769.50;5028150;28;20457;-57
2022/09/26 06:40:54;;;;;;;19.23;8.47;;;19.90;72.10;;;20.74;47.19;94749.19;5024876;28;20480;-56
2022/09/26 06:43:22;;;;;;;14.53;7.07;;;20.20;71.70;;;21.01;45.63;94751.03;5028484;28;20571;-57
2022/09/26 06:45:49;;;;;;;24.37;8.80;;;20.40;68.80;;;21.25;46.59;94746.84;5028480;28;20484;-56
2022/09/26 06:48:16;;;;;;;12.13;6.47;;;20.70;70.10;;;21.50;45.68;94741.66;5026807;28;20492;-58
2022/09/26 06:50:45;;;;;;;13.70;6.37;;;20.90;69.10;;;21.77;45.32;94744.28;5028448;28;20524;-56
2022/09/26 06:53:12;;;;;;;18.33;6.53;;;21.20;67.90;;;22.05;45.11;94757.31;5027350;28;20615;-58
2022/09/26 06:55:40;;;;;;;13.80;5.97;;;21.50;67.60;;;22.38;44.68;94757.16;5024127;28;21012;-58
2022/09/26 06:58:07;;;;;;;6.70;5.70;;;21.80;66.30;;;22.74;43.67;94750.31;5027823;28;20915;-57
2022/09/26 07:00:35;;;;;;;13.63;5.70;;;22.10;65.60;;;23.13;43.09;94760.94;5028211;28;20468;-58
2022/09/26 07:03:03;;;;;;;20.03;5.53;;;22.50;64.90;;;23.50;40.82;94752.94;5027746;28;20485;-56
2022/09/26 07:05:30;;;;;;;20.17;6.17;;;22.80;61.90;;;23.76;41.66;94754.47;5028541;28;20461;-56
2022/09/26 07:07:59;;;;;;;12.03;6.27;;;23.20;60.20;;;24.06;41.25;94761.78;5027926;28;20519;-57
2022/09/26 07:10:26;;;;;;;16.90;6.07;;;23.40;61.00;;;24.46;41.17;94752.34;5027438;28;20472;-57
2022/09/26 07:12:58;;;;;;;10.30;5.60;;;23.80;60.30;;;24.95;41.23;94757.63;5027874;28;20453;-57
2022/09/26 07:15:29;;;;;;;9.27;5.23;;;24.20;60.20;;;25.39;39.94;94755.44;5028047;28;20552;-57
2022/09/26 07:18:00;;;;;;;9.30;5.50;;;24.70;58.90;;;25.66;37.70;94758.44;5030188;28;20437;-57
2022/09/26 07:20:28;;;;;;;8.87;4.93;;;25.00;56.00;;;25.89;38.91;94754.06;5028096;28;20551;-57
2022/09/26 07:22:56;;;;;;;11.93;5.90;;;25.30;56.80;;;26.22;38.10;94768.75;5027735;28;20502;-58
2022/09/26 07:25:24;;;;;;;28.27;4.77;;;25.60;54.70;;;26.48;37.52;94754.69;5027410;28;21020;-58
2022/09/26 07:27:52;;;;;;;11.87;4.90;;;25.90;54.90;;;26.52;37.03;94763.09;5028070;28;20496;-58
2022/09/26 07:30:19;;;;;;;17.30;5.67;;;26.00;52.60;;;26.35;36.71;94749.56;5026184;28;20518;-58
2022/09/26 07:32:47;;;;;;;16.83;4.80;;;26.00;52.80;;;26.15;37.06;94771.59;5026256;28;20459;-56
2022/09/26 07:35:16;;;;;;;20.53;6.40;;;25.90;53.10;;;26.05;37.01;94766.81;5027197;28;20472;-57
2022/09/26 07:37:43;;;;;;;12.10;5.30;;;25.70;52.70;;;25.99;36.89;94770.47;5027391;28;20459;-56
2022/09/26 07:40:11;;;;;;;26.27;6.60;;;25.70;52.80;;;25.90;37.02;94763.78;5026865;28;20486;-59
2022/09/26 07:42:40;;;;;;;26.20;5.60;;;25.60;52.40;;;25.97;37.33;94764.47;5026803;28;20448;-57
2022/09/26 07:45:09;;;;;;;16.83;4.63;;;25.70;52.30;;;26.30;37.05;94760.28;5027010;28;20498;-56
2022/09/26 07:50:21;;;;;;;13.50;5.00;;;26.30;51.20;;;27.07;36.20;94750.84;5023797;28;20475;-57
2022/09/26 07:52:50;;;;;;;18.47;5.33;;;26.70;51.40;;;27.36;35.13;94746.19;5026629;28;20460;-56
2022/09/26 07:55:20;;;;;;;21.83;5.40;;;27.00;50.10;;;27.67;35.23;94740.34;5026459;28;20572;-58
2022/09/26 07:57:48;;;;;;;12.77;5.70;;;27.30;50.20;;;27.87;34.77;94732.53;5026682;28;20444;-57
2022/09/26 08:00:18;;;;;;;14.67;5.00;;;27.50;49.20;;;28.10;34.59;94719.81;5026302;28;20572;-58
2022/09/26 08:02:46;;;;;;;12.37;5.33;;;27.70;49.40;;;28.43;34.19;94705.28;5026450;28;20460;-56
2022/09/26 08:05:18;;;;;;;15.40;5.43;;;28.10;48.90;;;28.79;34.25;94710.25;5026235;28;21058;-55
2022/09/26 08:07:46;;;;;;;15.10;5.27;;;28.40;48.20;;;29.09;33.71;94714.25;5026527;28;20936;-57
2022/09/26 08:10:18;;;;;;;10.97;5.37;;;28.70;47.90;;;29.30;32.96;94713.34;5026862;28;20672;-58
2022/09/26 08:12:45;;;;;;;21.97;5.53;;;29.00;46.60;;;29.50;33.20;94709.13;5025427;28;20194;-55
2022/09/26 08:15:14;;;;;;;14.80;5.47;;;29.20;46.60;;;29.55;31.57;94703.72;5025938;28;20902;-58
2022/09/26 08:17:42;;;;;;;21.30;5.10;;;29.30;44.70;;;29.52;30.88;94701.53;5026159;28;20198;-58
2022/09/26 08:20:09;;;;;;;7.13;4.70;;;29.30;44.70;;;29.54;32.12;94687.72;5025991;28;20482;-55
2022/09/26 08:22:37;;;;;;;17.03;5.10;;;29.30;44.70;;;29.58;30.77;94689.66;5026678;28;20201;-57
2022/09/26 08:25:06;;;;;;;12.13;4.73;;;29.30;43.50;;;29.57;31.06;94671.75;5025860;28;20480;-57
2022/09/26 08:27:33;;;;;;;5.93;3.70;;;29.20;44.00;;;29.64;31.87;94680.47;5025825;28;20225;-60
2022/09/26 08:30:03;;;;;;;6.00;4.00;;;29.20;44.60;;;29.78;31.33;94678.06;5026040;28;20228;-56
2022/09/26 08:32:32;;;;;;;8.10;4.37;;;29.30;44.70;;;29.92;30.73;94689.28;5024734;28;21039;-55
2022/09/26 08:35:00;;;;;;;4.70;3.40;;;29.40;44.30;;;30.07;30.79;94685.81;5025230;28;20888;-56
2022/09/26 08:37:27;;;;;;;5.80;3.27;;;29.50;44.10;;;30.20;30.50;94696.13;5023370;28;20456;-56
2022/09/26 08:39:55;;;;;;;6.00;3.67;;;29.60;43.40;;;30.26;30.25;94694.25;5025609;28;20222;-56
2022/09/26 08:42:34;;;;;;;10.47;4.33;;;29.70;43.50;;;30.44;30.95;94684.78;5026387;28;20761;-56
2022/09/26 08:48:25;;;;;;;12.13;4.10;;;29.90;43.30;;;30.91;29.98;94666.63;5022672;28;20502;-55
2022/09/26 08:50:56;;;;;;;7.17;4.20;;;30.20;43.20;;;31.06;30.67;94669.38;5021539;28;20222;-56
2022/09/26 08:53:26;;;;;;;8.83;4.00;;;30.40;42.90;;;31.16;29.58;94667.72;5025548;28;20451;-58
2022/09/26 08:55:55;;;;;;;9.40;3.90;;;30.50;42.20;;;31.15;30.15;94675.03;5026050;28;20222;-58
2022/09/26 08:58:25;;;;;;;5.70;4.43;;;30.60;41.90;;;31.10;29.86;94675.06;5026239;28;20310;-58
2022/09/26 09:00:57;;;;;;;26.30;4.53;;;30.50;41.90;;;31.14;30.05;94675.31;5025831;28;20749;-57
2022/09/26 09:03:29;;;;;;;8.03;3.40;;;30.50;42.80;;;31.23;29.92;94673.66;5023742;28;20211;-58
2022/09/26 09:05:59;;;;;;;4.73;4.10;;;30.60;42.80;;;31.33;29.73;94668.22;5025048;28;20225;-57
2022/09/26 09:08:33;;;;;;;6.23;4.53;;;30.70;42.20;;;31.42;29.68;94668.47;5025025;28;20224;-57
2022/09/26 09:11:06;;;;;;;10.50;4.97;;;30.80;42.30;;;31.55;29.58;94656.22;5025188;28;20659;-57
2022/09/26 09:13:50;;;;;;;7.43;3.80;;;30.90;42.30;;;31.56;29.70;94649.69;5021828;28;20198;-59
2022/09/26 09:16:33;;;;;;;4.33;4.00;;;30.90;41.90;;;31.61;29.21;94641.53;5022061;28;20194;-56
2022/09/26 09:19:09;;;;;;;9.33;4.37;;;30.90;41.90;;;31.77;29.16;94645.78;5025100;28;20235;-56
2022/09/26 09:21:43;;;;;;;11.83;4.00;;;31.10;41.70;;;31.98;29.23;94641.06;5025743;28;20197;-58
2022/09/26 09:24:24;;;;;;;2.90;2.70;;;31.30;41.70;;;32.20;29.12;94641.78;5024379;28;20231;-60
2022/09/26 09:27:01;;;;;;;3.47;2.60;;;31.50;41.70;;;32.37;28.77;94631.31;5025035;28;20721;-58
2022/09/26 09:29:52;;;;;;;14.13;3.90;;;31.60;40.40;;;32.52;28.26;94628.47;5025169;28;20674;-56
2022/09/26 09:32:21;;;;;;;6.25;2.92;;;31.80;41.00;;;32.64;28.42;94624.56;5022260;28;20629;-56
2022/09/26 09:34:50;;;;;;;3.67;2.78;;;31.90;40.50;;;32.63;28.66;94628.41;5020770;28;20243;-57
2022/09/26 09:37:21;;;;;;;13.07;6.73;;;31.90;40.30;;;32.61;28.91;94627.88;5024327;28;20206;-57
2022/09/26 09:39:49;;;;;;;4.65;2.40;;;32.00;39.90;;;32.59;28.34;94605.56;5025189;28;20233;-55
2022/09/26 09:42:23;;;;;;;8.10;3.10;;;31.90;40.40;;;32.57;28.68;94607.75;5024695;28;20686;-57
2022/09/26 09:44:53;;;;;;;6.05;2.30;;;31.90;40.50;;;32.47;28.24;94611.38;5024718;28;20232;-56
2022/09/26 09:47:21;;;;;;;7.30;2.37;;;31.80;40.10;;;32.22;28.14;94606.94;5021572;28;20198;-56
2022/09/26 09:49:50;;;;;;;9.53;3.03;;;31.70;39.40;;;31.92;27.98;94611.44;5024968;28;20284;-58
2022/09/26 09:52:52;;;;;;;6.17;2.40;;;31.40;39.80;;;31.63;28.41;94593.91;5025165;28;20283;-58
2022/09/26 09:55:31;;;;;;;7.17;2.57;;;31.10;40.00;;;31.46;28.65;94596.13;5026643;28;20228;-57
2022/09/26 09:58:24;;;;;;;10.03;2.00;;;30.90;40.20;;;31.26;28.69;94591.59;5026247;28;20209;-57
2022/09/26 10:00:57;;;;;;;7.60;2.37;;;30.70;40.20;;;30.95;29.17;94580.78;5028724;28;20229;-57
2022/09/26 10:03:26;;;;;;;5.40;2.70;;;30.50;40.50;;;30.65;29.56;94590.63;5028808;28;20201;-58
2022/09/26 10:05:58;;;;;;;3.47;2.60;;;30.20;40.80;;;30.34;29.24;94577.03;5028654;28;20257;-56
2022/09/26 10:08:30;;;;;;;10.70;2.50;;;29.90;41.00;;;30.13;29.73;94589.78;5029038;28;20296;-57
2022/09/26 10:11:11;;;;;;;2.60;2.23;;;29.60;41.20;;;29.98;30.31;94584.34;5025681;28;20803;-56
2022/09/26 10:13:41;;;;;;;2.07;1.90;;;29.40;41.90;;;29.98;30.54;94587.88;5028887;28;20303;-55
2022/09/26 10:16:09;;;;;;;11.87;2.80;;;29.40;42.00;;;29.84;30.43;94578.63;5028802;28;20233;-55
2022/09/26 10:18:52;;;;;;;24.10;2.40;;;29.30;42.00;;;29.63;30.06;94581.22;5027962;28;20213;-57
2022/09/26 10:21:21;;;;;;;3.73;2.60;;;29.10;42.00;;;29.39;30.10;94591.75;5026922;28;20576;-57
2022/09/26 10:23:50;;;;;;;4.53;2.70;;;28.90;42.20;;;29.06;31.09;94582.06;5028322;28;20209;-57
2022/09/26 10:26:23;;;;;;;3.10;2.80;;;28.60;42.40;;;28.70;31.58;94566.44;5028588;28;20816;-57
2022/09/26 10:28:54;;;;;;;7.23;2.20;;;28.30;42.80;;;28.47;31.66;94566.78;5028635;28;20861;-55
2022/09/26 10:31:28;;;;;;;8.33;2.50;;;28.00;43.30;;;28.37;31.85;94567.53;5027812;28;20951;-57
2022/09/26 10:33:58;;;;;;;12.07;2.40;;;27.80;43.70;;;28.30;31.57;94573.16;5028190;28;20953;-56
2022/09/26 10:36:31;;;;;;;8.23;2.00;;;27.70;43.70;;;28.29;32.36;94558.03;5028436;28;20499;-56
2022/09/26 10:41:46;;;;;;;4.03;3.00;;;27.70;44.20;;;28.33;31.74;94553.69;5028444;28;20510;-56